• Join FlightAware (Why Join?)
  • Login
  • US Flag 
06:43PM EDT


 

Airport Tracker/Info


-or-


 

Live Flight TrackerFlight Track Log ✈ CTL17 ✈ 19-Jun-2013 ✈ KYIP - KBKL

Flight Track Log - Related Links

Times and Time Zones

All times are in EDT time to prevent confusion due to time zone crossing. See the CTL17 flight status page for this flight to view local times or setup timezone preferences in your user account.

Time Position Orientation Groundspeed Altitude Reporting Facility
EDT Latitude Longitude Course Direction KTS MPH feet Rate Location/Type
05:37PM 42.1806 -83.6067 219° Southwest 145 167 2,200  Level Cleveland Center
05:38PM 42.1406 -83.6244 198° South 149 171 2,800 360 Climbing Cleveland Center
05:39PM 42.1014 -83.6086 163° South 167 192 3,000  Climbing Cleveland Center
05:40PM 42.0647 -83.5733 144° Southeast 160 184 2,900  Descending Cleveland Center
05:41PM 42.0475 -83.5219 114° Southeast 163 188 3,000  Climbing Cleveland Center
05:42PM 42.0261 -83.4567 114° Southeast 167 192 3,000  Level Cleveland Center
05:43PM 42.0106 -83.4058 112° Southeast 164 189 3,000  Level Cleveland Center
05:44PM 41.9892 -83.3461 116° Southeast 163 188 3,000  Level Cleveland Center
05:45PM 41.9778 -83.2953 107° East 161 185 3,000 120 Level Cleveland Center
05:46PM 41.9606 -83.2389 112° Southeast 161 185 3,300 420 Climbing Cleveland Center
05:47PM 41.9431 -83.1822 113° Southeast 158 182 3,900 540 Climbing Cleveland Center
05:48PM 41.9297 -83.1286 108° East 156 180 4,400 420 Climbing Cleveland Center
05:49PM 41.9122 -83.0664 111° Southeast 161 185 4,900 180 Climbing Cleveland Center
05:50PM 41.8925 -83.0100 115° Southeast 174 200 4,900 60 Level Cleveland Center
05:51PM 41.8786 -82.9761 119° Southeast 174 200 5,000  Climbing Cleveland Center
05:53PM 41.8514 -82.8858 112° Southeast 173 199 5,000  Level Cleveland Center
05:53PM 41.8378 -82.8322 109° East 171 197 5,000  Level Cleveland Center
05:54PM 41.8203 -82.7758 113° Southeast 170 196 5,000  Level Cleveland Center
05:55PM 41.8047 -82.7086 107° East 171 197 5,000  Level Cleveland Center
05:56PM 41.7892 -82.6494 109° East 170 196 5,000  Level Cleveland Center
05:57PM 41.7714 -82.5906 112° Southeast 169 194 5,000  Level Cleveland Center
05:58PM 41.7536 -82.5317 112° Southeast 171 197 5,000  Level Cleveland Center
05:59PM 41.7400 -82.4728 107° East 169 194 5,000  Level Cleveland Center
06:01PM 41.7222 -82.4136 112° Southeast 168 193 5,000 -240 Level Cleveland Center
06:02PM 41.7025 -82.3436 111° Southeast 171 197 4,600 -480 Descending Cleveland Center
06:03PM 41.6867 -82.2819 109° East 184 212 4,100 -660 Descending Cleveland Center
06:04PM 41.6669 -82.2203 113° Southeast 183 211 3,300 -720 Descending Cleveland Center
06:05PM 41.6489 -82.1589 111° Southeast 180 207 2,700 -600 Descending Cleveland Center
06:06PM 41.6311 -82.0944 110° East 178 205 2,200 -420 Descending Cleveland Center
06:07PM 41.6089 -82.0328 116° Southeast 170 196 1,900 -240 Descending Cleveland Center
06:08PM 41.5889 -81.9686 113° Southeast 161 185 1,700 -180 Descending Cleveland Center
06:09PM 41.5644 -81.9069 118° Southeast 161 185 1,600 -60 Descending Cleveland Center
06:10PM 41.5464 -81.8594 117° Southeast 160 184 1,600  Level Cleveland Center
06:11PM 41.5344 -81.8147 110° East 149 171 1,600 -120 Level Cleveland Center
06:12PM 41.5142 -81.7561 115° Southeast 148 170 1,400 -360 Descending Cleveland Center
06:13PM 41.5061 -81.7117 104° East 109 125 900 -540 Descending Cleveland Center
06:15PM 41.5175 -81.6833 110° East  Level Estimated